Terminal Aerodrome Forecast
Issued by NWS

Current Version | Previous Version | Text Only | Print | Product List | Glossary On
Versions: 1 2 3 4 5 6 7 8 9 10 11 12 13 14 15 16 17 18
283
FTUS43 KICT 192321
TAFSLN
TAF
KSLN 192321Z 2000/2024 10009KT P6SM SKC
     FM201500 14011KT P6SM SCT200
     FM201600 14015G24KT P6SM BKN200=

USA.gov is the U.S. government's official web portal to all federal, state and local government web resources and services.